sensor_id;sensor_type;location;lat;lon;timestamp;P1;durP1;ratioP1;P2;durP2;ratioP2
65477;SDS011;53678;39.642;22.430;2022-07-24T00:00:40;21.40;;;8.05;;
65477;SDS011;53678;39.642;22.430;2022-07-24T00:03:06;20.63;;;8.32;;
65477;SDS011;53678;39.642;22.430;2022-07-24T00:05:32;16.80;;;8.13;;
65477;SDS011;53678;39.642;22.430;2022-07-24T00:07:58;14.88;;;7.95;;
65477;SDS011;53678;39.642;22.430;2022-07-24T00:10:24;13.60;;;7.75;;
65477;SDS011;53678;39.642;22.430;2022-07-24T00:12:50;19.70;;;8.07;;
65477;SDS011;53678;39.642;22.430;2022-07-24T00:15:17;18.35;;;8.30;;
65477;SDS011;53678;39.642;22.430;2022-07-24T00:17:43;18.67;;;8.00;;
65477;SDS011;53678;39.642;22.430;2022-07-24T00:20:09;19.65;;;7.97;;
65477;SDS011;53678;39.642;22.430;2022-07-24T00:22:35;19.45;;;8.32;;
65477;SDS011;53678;39.642;22.430;2022-07-24T00:25:02;20.88;;;7.88;;
65477;SDS011;53678;39.642;22.430;2022-07-24T00:27:29;16.83;;;7.57;;
65477;SDS011;53678;39.642;22.430;2022-07-24T00:29:55;10.23;;;7.05;;
65477;SDS011;53678;39.642;22.430;2022-07-24T00:32:21;13.68;;;7.50;;
65477;SDS011;53678;39.642;22.430;2022-07-24T00:34:47;12.88;;;7.57;;
65477;SDS011;53678;39.642;22.430;2022-07-24T00:37:13;8.45;;;6.72;;
65477;SDS011;53678;39.642;22.430;2022-07-24T00:39:39;14.07;;;7.00;;
65477;SDS011;53678;39.642;22.430;2022-07-24T00:42:04;12.68;;;7.22;;
65477;SDS011;53678;39.642;22.430;2022-07-24T00:44:30;12.43;;;6.65;;
65477;SDS011;53678;39.642;22.430;2022-07-24T00:46:57;10.65;;;7.07;;
65477;SDS011;53678;39.642;22.430;2022-07-24T00:49:23;16.02;;;7.10;;
65477;SDS011;53678;39.642;22.430;2022-07-24T00:51:50;13.43;;;6.85;;
65477;SDS011;53678;39.642;22.430;2022-07-24T00:54:18;11.65;;;7.00;;
65477;SDS011;53678;39.642;22.430;2022-07-24T00:56:46;14.50;;;6.90;;
65477;SDS011;53678;39.642;22.430;2022-07-24T00:59:13;11.38;;;6.85;;
65477;SDS011;53678;39.642;22.430;2022-07-24T01:01:39;14.15;;;6.80;;
65477;SDS011;53678;39.642;22.430;2022-07-24T01:04:05;11.38;;;6.70;;
65477;SDS011;53678;39.642;22.430;2022-07-24T01:06:32;12.40;;;6.50;;
65477;SDS011;53678;39.642;22.430;2022-07-24T01:08:58;14.25;;;6.72;;
65477;SDS011;53678;39.642;22.430;2022-07-24T01:11:24;15.23;;;7.38;;
65477;SDS011;53678;39.642;22.430;2022-07-24T01:13:50;18.90;;;7.47;;
65477;SDS011;53678;39.642;22.430;2022-07-24T01:16:17;12.77;;;7.53;;
65477;SDS011;53678;39.642;22.430;2022-07-24T01:18:43;12.13;;;6.82;;
65477;SDS011;53678;39.642;22.430;2022-07-24T01:21:09;12.05;;;6.78;;
65477;SDS011;53678;39.642;22.430;2022-07-24T01:23:35;11.98;;;6.72;;
65477;SDS011;53678;39.642;22.430;2022-07-24T01:26:01;9.30;;;6.50;;
65477;SDS011;53678;39.642;22.430;2022-07-24T01:28:28;16.10;;;6.57;;
65477;SDS011;53678;39.642;22.430;2022-07-24T01:30:54;12.00;;;6.80;;
65477;SDS011;53678;39.642;22.430;2022-07-24T01:33:20;11.80;;;6.38;;
65477;SDS011;53678;39.642;22.430;2022-07-24T01:35:46;14.60;;;6.82;;
65477;SDS011;53678;39.642;22.430;2022-07-24T01:38:12;10.55;;;6.30;;
65477;SDS011;53678;39.642;22.430;2022-07-24T01:40:38;13.15;;;6.57;;
65477;SDS011;53678;39.642;22.430;2022-07-24T01:43:05;11.55;;;6.75;;
65477;SDS011;53678;39.642;22.430;2022-07-24T01:45:31;11.75;;;6.65;;
65477;SDS011;53678;39.642;22.430;2022-07-24T01:47:57;7.72;;;6.18;;
65477;SDS011;53678;39.642;22.430;2022-07-24T01:50:23;10.10;;;6.45;;
65477;SDS011;53678;39.642;22.430;2022-07-24T01:52:49;12.75;;;6.80;;
65477;SDS011;53678;39.642;22.430;2022-07-24T01:55:15;10.48;;;6.55;;
65477;SDS011;53678;39.642;22.430;2022-07-24T01:57:41;10.13;;;6.78;;
65477;SDS011;53678;39.642;22.430;2022-07-24T02:00:08;17.83;;;7.00;;
65477;SDS011;53678;39.642;22.430;2022-07-24T02:02:41;17.85;;;7.07;;
65477;SDS011;53678;39.642;22.430;2022-07-24T02:05:08;13.30;;;7.20;;
65477;SDS011;53678;39.642;22.430;2022-07-24T02:07:36;14.52;;;7.05;;
65477;SDS011;53678;39.642;22.430;2022-07-24T02:10:02;18.50;;;7.45;;
65477;SDS011;53678;39.642;22.430;2022-07-24T02:12:28;18.20;;;7.00;;
65477;SDS011;53678;39.642;22.430;2022-07-24T02:14:54;10.85;;;7.28;;
65477;SDS011;53678;39.642;22.430;2022-07-24T02:17:20;17.75;;;7.80;;
65477;SDS011;53678;39.642;22.430;2022-07-24T02:19:46;13.63;;;6.95;;
65477;SDS011;53678;39.642;22.430;2022-07-24T02:22:12;10.63;;;6.45;;
65477;SDS011;53678;39.642;22.430;2022-07-24T02:24:38;11.90;;;6.40;;
65477;SDS011;53678;39.642;22.430;2022-07-24T02:27:03;13.68;;;6.63;;
65477;SDS011;53678;39.642;22.430;2022-07-24T02:29:29;9.50;;;6.82;;
65477;SDS011;53678;39.642;22.430;2022-07-24T02:31:56;8.65;;;6.22;;
65477;SDS011;53678;39.642;22.430;2022-07-24T02:34:22;11.68;;;6.43;;
65477;SDS011;53678;39.642;22.430;2022-07-24T02:36:48;13.50;;;7.03;;
65477;SDS011;53678;39.642;22.430;2022-07-24T02:39:14;17.60;;;6.90;;
65477;SDS011;53678;39.642;22.430;2022-07-24T02:41:40;10.73;;;6.50;;
65477;SDS011;53678;39.642;22.430;2022-07-24T02:44:06;12.68;;;6.70;;
65477;SDS011;53678;39.642;22.430;2022-07-24T02:46:32;13.65;;;7.10;;
65477;SDS011;53678;39.642;22.430;2022-07-24T02:48:58;18.38;;;7.28;;
65477;SDS011;53678;39.642;22.430;2022-07-24T02:51:24;16.75;;;7.22;;
65477;SDS011;53678;39.642;22.430;2022-07-24T02:53:50;15.02;;;6.88;;
65477;SDS011;53678;39.642;22.430;2022-07-24T02:56:16;11.90;;;7.28;;
65477;SDS011;53678;39.642;22.430;2022-07-24T02:58:42;16.58;;;7.68;;
65477;SDS011;53678;39.642;22.430;2022-07-24T03:01:08;11.73;;;7.03;;
65477;SDS011;53678;39.642;22.430;2022-07-24T03:03:34;11.82;;;7.30;;
65477;SDS011;53678;39.642;22.430;2022-07-24T03:06:00;13.18;;;6.97;;
65477;SDS011;53678;39.642;22.430;2022-07-24T03:08:26;15.95;;;7.68;;
65477;SDS011;53678;39.642;22.430;2022-07-24T03:10:51;13.48;;;6.43;;
65477;SDS011;53678;39.642;22.430;2022-07-24T03:13:17;13.40;;;7.40;;
65477;SDS011;53678;39.642;22.430;2022-07-24T03:15:43;11.45;;;6.97;;
65477;SDS011;53678;39.642;22.430;2022-07-24T03:18:09;13.73;;;6.75;;
65477;SDS011;53678;39.642;22.430;2022-07-24T03:20:35;10.23;;;6.80;;
65477;SDS011;53678;39.642;22.430;2022-07-24T03:23:02;13.45;;;7.32;;
65477;SDS011;53678;39.642;22.430;2022-07-24T03:25:28;13.95;;;7.00;;
65477;SDS011;53678;39.642;22.430;2022-07-24T03:27:54;8.90;;;6.45;;
65477;SDS011;53678;39.642;22.430;2022-07-24T03:30:20;13.77;;;6.88;;
65477;SDS011;53678;39.642;22.430;2022-07-24T03:32:46;9.90;;;6.35;;
65477;SDS011;53678;39.642;22.430;2022-07-24T03:35:12;11.52;;;7.40;;
65477;SDS011;53678;39.642;22.430;2022-07-24T03:37:39;12.07;;;7.47;;
65477;SDS011;53678;39.642;22.430;2022-07-24T03:40:05;11.48;;;7.07;;
65477;SDS011;53678;39.642;22.430;2022-07-24T03:42:31;10.88;;;6.57;;
65477;SDS011;53678;39.642;22.430;2022-07-24T03:44:57;11.93;;;6.82;;
65477;SDS011;53678;39.642;22.430;2022-07-24T03:47:23;11.98;;;7.13;;
65477;SDS011;53678;39.642;22.430;2022-07-24T03:49:49;16.23;;;7.80;;
65477;SDS011;53678;39.642;22.430;2022-07-24T03:52:15;15.35;;;7.00;;
65477;SDS011;53678;39.642;22.430;2022-07-24T03:54:41;16.98;;;7.75;;
65477;SDS011;53678;39.642;22.430;2022-07-24T03:57:07;18.23;;;7.00;;
65477;SDS011;53678;39.642;22.430;2022-07-24T03:59:34;12.18;;;7.10;;
65477;SDS011;53678;39.642;22.430;2022-07-24T04:02:00;13.20;;;6.30;;
65477;SDS011;53678;39.642;22.430;2022-07-24T04:04:26;12.45;;;6.95;;
65477;SDS011;53678;39.642;22.430;2022-07-24T04:06:52;12.57;;;6.80;;
65477;SDS011;53678;39.642;22.430;2022-07-24T04:09:18;10.45;;;6.65;;
65477;SDS011;53678;39.642;22.430;2022-07-24T04:11:44;10.73;;;6.25;;
65477;SDS011;53678;39.642;22.430;2022-07-24T04:14:11;14.32;;;6.30;;
65477;SDS011;53678;39.642;22.430;2022-07-24T04:16:37;11.98;;;7.40;;
65477;SDS011;53678;39.642;22.430;2022-07-24T04:19:03;14.15;;;6.75;;
65477;SDS011;53678;39.642;22.430;2022-07-24T04:21:29;15.80;;;6.65;;
65477;SDS011;53678;39.642;22.430;2022-07-24T04:23:55;14.80;;;6.82;;
65477;SDS011;53678;39.642;22.430;2022-07-24T04:26:21;10.88;;;7.07;;
65477;SDS011;53678;39.642;22.430;2022-07-24T04:28:47;15.25;;;7.93;;
65477;SDS011;53678;39.642;22.430;2022-07-24T04:31:13;10.65;;;6.75;;
65477;SDS011;53678;39.642;22.430;2022-07-24T04:33:39;12.88;;;7.30;;
65477;SDS011;53678;39.642;22.430;2022-07-24T04:36:05;16.42;;;7.97;;
65477;SDS011;53678;39.642;22.430;2022-07-24T04:38:34;18.02;;;8.18;;
65477;SDS011;53678;39.642;22.430;2022-07-24T04:41:00;12.95;;;7.15;;
65477;SDS011;53678;39.642;22.430;2022-07-24T04:43:26;14.27;;;7.25;;
65477;SDS011;53678;39.642;22.430;2022-07-24T04:45:52;14.15;;;7.57;;
65477;SDS011;53678;39.642;22.430;2022-07-24T04:48:18;11.35;;;7.30;;
65477;SDS011;53678;39.642;22.430;2022-07-24T04:50:44;17.88;;;7.10;;
65477;SDS011;53678;39.642;22.430;2022-07-24T04:53:11;10.75;;;6.75;;
65477;SDS011;53678;39.642;22.430;2022-07-24T04:55:37;11.63;;;6.95;;
65477;SDS011;53678;39.642;22.430;2022-07-24T04:58:03;13.07;;;7.13;;
65477;SDS011;53678;39.642;22.430;2022-07-24T05:00:29;14.57;;;7.20;;
65477;SDS011;53678;39.642;22.430;2022-07-24T05:02:55;12.68;;;6.47;;
65477;SDS011;53678;39.642;22.430;2022-07-24T05:05:21;11.05;;;7.03;;
65477;SDS011;53678;39.642;22.430;2022-07-24T05:07:47;15.82;;;6.80;;
65477;SDS011;53678;39.642;22.430;2022-07-24T05:10:13;15.43;;;6.90;;
65477;SDS011;53678;39.642;22.430;2022-07-24T05:12:39;11.00;;;6.10;;
65477;SDS011;53678;39.642;22.430;2022-07-24T05:15:05;15.35;;;6.70;;
65477;SDS011;53678;39.642;22.430;2022-07-24T05:17:33;11.52;;;6.50;;
65477;SDS011;53678;39.642;22.430;2022-07-24T05:19:59;12.55;;;6.93;;
65477;SDS011;53678;39.642;22.430;2022-07-24T05:22:25;15.48;;;6.18;;
65477;SDS011;53678;39.642;22.430;2022-07-24T05:24:51;11.70;;;6.10;;
65477;SDS011;53678;39.642;22.430;2022-07-24T05:27:17;15.80;;;6.63;;
65477;SDS011;53678;39.642;22.430;2022-07-24T05:29:43;10.60;;;6.60;;
65477;SDS011;53678;39.642;22.430;2022-07-24T05:32:09;11.10;;;6.20;;
65477;SDS011;53678;39.642;22.430;2022-07-24T05:34:35;15.38;;;6.85;;
65477;SDS011;53678;39.642;22.430;2022-07-24T05:37:01;13.35;;;6.93;;
65477;SDS011;53678;39.642;22.430;2022-07-24T05:39:27;16.30;;;6.78;;
65477;SDS011;53678;39.642;22.430;2022-07-24T05:41:53;12.98;;;6.72;;
65477;SDS011;53678;39.642;22.430;2022-07-24T05:44:19;12.77;;;6.35;;
65477;SDS011;53678;39.642;22.430;2022-07-24T05:46:45;10.95;;;6.32;;
65477;SDS011;53678;39.642;22.430;2022-07-24T05:49:11;13.30;;;7.07;;
65477;SDS011;53678;39.642;22.430;2022-07-24T05:51:36;19.13;;;7.22;;
65477;SDS011;53678;39.642;22.430;2022-07-24T05:54:02;13.75;;;6.97;;
65477;SDS011;53678;39.642;22.430;2022-07-24T05:56:29;12.02;;;6.90;;
65477;SDS011;53678;39.642;22.430;2022-07-24T05:58:55;11.60;;;6.38;;
65477;SDS011;53678;39.642;22.430;2022-07-24T06:01:21;13.45;;;6.50;;
65477;SDS011;53678;39.642;22.430;2022-07-24T06:03:47;12.98;;;6.88;;
65477;SDS011;53678;39.642;22.430;2022-07-24T06:06:13;12.68;;;7.32;;
65477;SDS011;53678;39.642;22.430;2022-07-24T06:08:38;20.27;;;7.28;;
65477;SDS011;53678;39.642;22.430;2022-07-24T06:11:05;13.48;;;6.30;;
65477;SDS011;53678;39.642;22.430;2022-07-24T06:13:31;10.18;;;6.95;;
65477;SDS011;53678;39.642;22.430;2022-07-24T06:15:57;14.88;;;6.45;;
65477;SDS011;53678;39.642;22.430;2022-07-24T06:18:22;9.77;;;6.47;;
65477;SDS011;53678;39.642;22.430;2022-07-24T06:20:49;10.63;;;6.60;;
65477;SDS011;53678;39.642;22.430;2022-07-24T06:23:15;9.45;;;6.28;;
65477;SDS011;53678;39.642;22.430;2022-07-24T06:25:40;12.88;;;6.30;;
65477;SDS011;53678;39.642;22.430;2022-07-24T06:28:06;13.13;;;7.03;;
65477;SDS011;53678;39.642;22.430;2022-07-24T06:30:32;14.55;;;7.45;;
65477;SDS011;53678;39.642;22.430;2022-07-24T06:32:59;11.82;;;7.18;;
65477;SDS011;53678;39.642;22.430;2022-07-24T06:35:25;12.02;;;7.22;;
65477;SDS011;53678;39.642;22.430;2022-07-24T06:37:53;12.85;;;6.57;;
65477;SDS011;53678;39.642;22.430;2022-07-24T06:40:20;18.05;;;7.00;;
65477;SDS011;53678;39.642;22.430;2022-07-24T06:42:47;12.70;;;7.30;;
65477;SDS011;53678;39.642;22.430;2022-07-24T06:45:14;11.32;;;6.90;;
65477;SDS011;53678;39.642;22.430;2022-07-24T06:47:41;12.55;;;6.80;;
65477;SDS011;53678;39.642;22.430;2022-07-24T06:50:07;16.67;;;7.43;;
65477;SDS011;53678;39.642;22.430;2022-07-24T06:52:34;12.85;;;6.53;;
65477;SDS011;53678;39.642;22.430;2022-07-24T06:55:00;13.45;;;6.95;;
65477;SDS011;53678;39.642;22.430;2022-07-24T06:57:26;10.52;;;7.10;;
65477;SDS011;53678;39.642;22.430;2022-07-24T06:59:52;10.05;;;7.03;;
65477;SDS011;53678;39.642;22.430;2022-07-24T07:02:19;11.82;;;6.60;;
65477;SDS011;53678;39.642;22.430;2022-07-24T07:04:45;11.82;;;6.55;;
65477;SDS011;53678;39.642;22.430;2022-07-24T07:07:11;10.65;;;6.07;;
65477;SDS011;53678;39.642;22.430;2022-07-24T07:09:37;10.98;;;5.07;;
65477;SDS011;53678;39.642;22.430;2022-07-24T07:12:04;12.85;;;6.13;;
65477;SDS011;53678;39.642;22.430;2022-07-24T07:14:30;9.60;;;5.88;;
65477;SDS011;53678;39.642;22.430;2022-07-24T07:16:56;12.48;;;7.03;;
65477;SDS011;53678;39.642;22.430;2022-07-24T07:19:22;13.95;;;7.40;;
65477;SDS011;53678;39.642;22.430;2022-07-24T07:21:48;12.77;;;7.45;;
65477;SDS011;53678;39.642;22.430;2022-07-24T07:24:14;14.73;;;7.20;;
65477;SDS011;53678;39.642;22.430;2022-07-24T07:26:40;14.23;;;7.15;;
65477;SDS011;53678;39.642;22.430;2022-07-24T07:29:06;17.33;;;7.53;;
65477;SDS011;53678;39.642;22.430;2022-07-24T07:31:32;11.07;;;6.80;;
65477;SDS011;53678;39.642;22.430;2022-07-24T07:33:58;14.05;;;6.93;;
65477;SDS011;53678;39.642;22.430;2022-07-24T07:36:24;10.50;;;6.75;;
65477;SDS011;53678;39.642;22.430;2022-07-24T07:38:51;13.63;;;6.60;;
65477;SDS011;53678;39.642;22.430;2022-07-24T07:41:17;12.80;;;7.10;;
65477;SDS011;53678;39.642;22.430;2022-07-24T07:43:47;13.40;;;6.65;;
65477;SDS011;53678;39.642;22.430;2022-07-24T07:46:13;11.38;;;6.25;;
65477;SDS011;53678;39.642;22.430;2022-07-24T07:48:40;9.65;;;5.75;;
65477;SDS011;53678;39.642;22.430;2022-07-24T07:51:06;10.30;;;6.30;;
65477;SDS011;53678;39.642;22.430;2022-07-24T07:53:32;12.93;;;6.35;;
65477;SDS011;53678;39.642;22.430;2022-07-24T07:55:58;12.10;;;6.50;;
65477;SDS011;53678;39.642;22.430;2022-07-24T07:58:24;12.57;;;6.75;;
65477;SDS011;53678;39.642;22.430;2022-07-24T08:00:51;11.60;;;6.10;;
65477;SDS011;53678;39.642;22.430;2022-07-24T08:03:18;10.98;;;6.38;;
65477;SDS011;53678;39.642;22.430;2022-07-24T08:05:44;9.85;;;6.70;;
65477;SDS011;53678;39.642;22.430;2022-07-24T08:08:10;13.43;;;6.60;;
65477;SDS011;53678;39.642;22.430;2022-07-24T08:10:36;11.65;;;6.68;;
65477;SDS011;53678;39.642;22.430;2022-07-24T08:13:02;11.77;;;6.53;;
65477;SDS011;53678;39.642;22.430;2022-07-24T08:15:28;16.90;;;6.40;;
65477;SDS011;53678;39.642;22.430;2022-07-24T08:17:55;10.95;;;6.18;;
65477;SDS011;53678;39.642;22.430;2022-07-24T08:20:22;12.52;;;6.35;;
65477;SDS011;53678;39.642;22.430;2022-07-24T08:22:49;10.00;;;5.65;;
65477;SDS011;53678;39.642;22.430;2022-07-24T08:25:16;11.93;;;5.82;;
65477;SDS011;53678;39.642;22.430;2022-07-24T08:27:41;9.13;;;5.63;;
65477;SDS011;53678;39.642;22.430;2022-07-24T08:30:08;11.75;;;5.40;;
65477;SDS011;53678;39.642;22.430;2022-07-24T08:32:35;8.73;;;5.22;;
65477;SDS011;53678;39.642;22.430;2022-07-24T08:35:01;9.40;;;5.80;;
65477;SDS011;53678;39.642;22.430;2022-07-24T08:37:28;11.98;;;6.32;;
65477;SDS011;53678;39.642;22.430;2022-07-24T08:39:54;13.77;;;6.07;;
65477;SDS011;53678;39.642;22.430;2022-07-24T08:42:20;15.20;;;6.35;;
65477;SDS011;53678;39.642;22.430;2022-07-24T08:44:46;13.45;;;6.00;;
65477;SDS011;53678;39.642;22.430;2022-07-24T08:47:14;10.60;;;6.22;;
65477;SDS011;53678;39.642;22.430;2022-07-24T08:49:40;11.63;;;6.20;;
65477;SDS011;53678;39.642;22.430;2022-07-24T08:52:09;11.20;;;6.13;;
65477;SDS011;53678;39.642;22.430;2022-07-24T08:54:36;11.82;;;6.32;;
65477;SDS011;53678;39.642;22.430;2022-07-24T08:57:02;15.57;;;6.35;;
65477;SDS011;53678;39.642;22.430;2022-07-24T08:59:29;12.07;;;6.20;;
65477;SDS011;53678;39.642;22.430;2022-07-24T09:01:56;8.88;;;6.05;;
65477;SDS011;53678;39.642;22.430;2022-07-24T09:07:08;9.00;;;5.25;;
65477;SDS011;53678;39.642;22.430;2022-07-24T09:09:36;14.02;;;5.40;;
65477;SDS011;53678;39.642;22.430;2022-07-24T09:14:44;11.02;;;4.95;;
65477;SDS011;53678;39.642;22.430;2022-07-24T09:17:16;8.85;;;4.97;;
65477;SDS011;53678;39.642;22.430;2022-07-24T09:22:24;12.57;;;5.35;;
65477;SDS011;53678;39.642;22.430;2022-07-24T09:25:05;10.43;;;5.18;;
65477;SDS011;53678;39.642;22.430;2022-07-24T09:27:35;7.43;;;5.20;;
65477;SDS011;53678;39.642;22.430;2022-07-24T09:30:03;10.75;;;5.43;;
65477;SDS011;53678;39.642;22.430;2022-07-24T09:32:30;8.88;;;5.00;;
65477;SDS011;53678;39.642;22.430;2022-07-24T09:34:56;9.95;;;5.38;;
65477;SDS011;53678;39.642;22.430;2022-07-24T09:37:23;7.80;;;4.65;;
65477;SDS011;53678;39.642;22.430;2022-07-24T09:39:52;6.70;;;4.45;;
65477;SDS011;53678;39.642;22.430;2022-07-24T09:42:30;10.30;;;4.93;;
65477;SDS011;53678;39.642;22.430;2022-07-24T09:45:04;8.55;;;4.63;;
65477;SDS011;53678;39.642;22.430;2022-07-24T09:47:34;8.93;;;4.93;;
65477;SDS011;53678;39.642;22.430;2022-07-24T09:50:13;8.98;;;5.22;;
65477;SDS011;53678;39.642;22.430;2022-07-24T09:52:41;7.57;;;4.68;;
65477;SDS011;53678;39.642;22.430;2022-07-24T09:55:21;13.57;;;5.35;;
65477;SDS011;53678;39.642;22.430;2022-07-24T09:57:48;9.40;;;4.70;;
65477;SDS011;53678;39.642;22.430;2022-07-24T10:00:15;10.05;;;4.72;;
65477;SDS011;53678;39.642;22.430;2022-07-24T10:02:42;11.00;;;4.93;;
65477;SDS011;53678;39.642;22.430;2022-07-24T10:05:10;11.32;;;5.18;;
65477;SDS011;53678;39.642;22.430;2022-07-24T10:07:38;14.15;;;5.45;;
65477;SDS011;53678;39.642;22.430;2022-07-24T10:10:04;10.60;;;5.00;;
65477;SDS011;53678;39.642;22.430;2022-07-24T10:12:31;9.57;;;5.40;;
65477;SDS011;53678;39.642;22.430;2022-07-24T10:14:58;13.40;;;5.57;;
65477;SDS011;53678;39.642;22.430;2022-07-24T10:17:32;11.70;;;5.30;;
65477;SDS011;53678;39.642;22.430;2022-07-24T10:20:11;9.90;;;4.80;;
65477;SDS011;53678;39.642;22.430;2022-07-24T10:23:01;12.93;;;5.32;;
65477;SDS011;53678;39.642;22.430;2022-07-24T10:25:28;7.80;;;4.57;;
65477;SDS011;53678;39.642;22.430;2022-07-24T10:27:59;7.50;;;4.38;;
65477;SDS011;53678;39.642;22.430;2022-07-24T10:30:28;10.35;;;4.72;;
65477;SDS011;53678;39.642;22.430;2022-07-24T10:32:54;12.07;;;5.35;;
65477;SDS011;53678;39.642;22.430;2022-07-24T10:35:21;7.45;;;4.68;;
65477;SDS011;53678;39.642;22.430;2022-07-24T10:40:44;8.70;;;4.88;;
65477;SDS011;53678;39.642;22.430;2022-07-24T10:43:14;9.18;;;4.78;;
65477;SDS011;53678;39.642;22.430;2022-07-24T10:53:24;9.38;;;5.90;;
65477;SDS011;53678;39.642;22.430;2022-07-24T10:55:51;8.73;;;5.10;;
65477;SDS011;53678;39.642;22.430;2022-07-24T10:58:20;8.63;;;4.78;;
65477;SDS011;53678;39.642;22.430;2022-07-24T11:00:47;9.43;;;4.72;;
65477;SDS011;53678;39.642;22.430;2022-07-24T11:03:22;9.02;;;4.50;;
65477;SDS011;53678;39.642;22.430;2022-07-24T11:06:06;7.85;;;4.50;;
65477;SDS011;53678;39.642;22.430;2022-07-24T11:08:57;10.50;;;4.55;;
65477;SDS011;53678;39.642;22.430;2022-07-24T11:11:26;7.82;;;4.53;;
65477;SDS011;53678;39.642;22.430;2022-07-24T11:13:53;8.30;;;4.72;;
65477;SDS011;53678;39.642;22.430;2022-07-24T11:16:32;9.43;;;4.43;;
65477;SDS011;53678;39.642;22.430;2022-07-24T11:26:51;10.13;;;4.80;;
65477;SDS011;53678;39.642;22.430;2022-07-24T11:29:23;9.35;;;4.43;;
65477;SDS011;53678;39.642;22.430;2022-07-24T11:31:58;8.57;;;4.28;;
65477;SDS011;53678;39.642;22.430;2022-07-24T11:34:26;12.35;;;4.68;;
65477;SDS011;53678;39.642;22.430;2022-07-24T11:36:54;12.30;;;4.72;;
65477;SDS011;53678;39.642;22.430;2022-07-24T11:41:58;9.18;;;4.18;;
65477;SDS011;53678;39.642;22.430;2022-07-24T11:44:30;13.77;;;4.63;;
65477;SDS011;53678;39.642;22.430;2022-07-24T11:46:57;6.75;;;4.22;;
65477;SDS011;53678;39.642;22.430;2022-07-24T11:49:26;13.60;;;4.35;;
65477;SDS011;53678;39.642;22.430;2022-07-24T11:51:53;6.85;;;3.90;;
65477;SDS011;53678;39.642;22.430;2022-07-24T11:54:29;10.38;;;4.38;;
65477;SDS011;53678;39.642;22.430;2022-07-24T11:56:55;13.00;;;4.18;;
65477;SDS011;53678;39.642;22.430;2022-07-24T12:01:48;9.93;;;4.47;;
65477;SDS011;53678;39.642;22.430;2022-07-24T12:04:18;7.05;;;4.20;;
65477;SDS011;53678;39.642;22.430;2022-07-24T12:06:46;10.53;;;4.50;;
65477;SDS011;53678;39.642;22.430;2022-07-24T12:09:13;6.10;;;4.00;;
65477;SDS011;53678;39.642;22.430;2022-07-24T12:11:39;13.82;;;4.40;;
65477;SDS011;53678;39.642;22.430;2022-07-24T12:14:15;9.77;;;4.00;;
65477;SDS011;53678;39.642;22.430;2022-07-24T12:16:42;6.68;;;4.30;;
65477;SDS011;53678;39.642;22.430;2022-07-24T12:19:16;10.43;;;4.00;;
65477;SDS011;53678;39.642;22.430;2022-07-24T12:21:51;7.07;;;3.50;;
65477;SDS011;53678;39.642;22.430;2022-07-24T12:24:19;11.65;;;4.20;;
65477;SDS011;53678;39.642;22.430;2022-07-24T12:26:50;11.82;;;4.10;;
65477;SDS011;53678;39.642;22.430;2022-07-24T12:29:23;8.77;;;3.88;;
65477;SDS011;53678;39.642;22.430;2022-07-24T12:34:45;8.20;;;3.45;;
65477;SDS011;53678;39.642;22.430;2022-07-24T12:37:16;7.68;;;4.18;;
65477;SDS011;53678;39.642;22.430;2022-07-24T12:39:50;8.23;;;3.65;;
65477;SDS011;53678;39.642;22.430;2022-07-24T12:42:18;7.70;;;3.80;;
65477;SDS011;53678;39.642;22.430;2022-07-24T12:45:05;8.18;;;3.97;;
65477;SDS011;53678;39.642;22.430;2022-07-24T12:50:32;7.05;;;3.90;;
65477;SDS011;53678;39.642;22.430;2022-07-24T12:53:07;9.38;;;4.10;;
65477;SDS011;53678;39.642;22.430;2022-07-24T12:55:35;9.10;;;4.60;;
65477;SDS011;53678;39.642;22.430;2022-07-24T12:58:02;10.15;;;4.97;;
65477;SDS011;53678;39.642;22.430;2022-07-24T13:00:29;8.43;;;4.25;;
65477;SDS011;53678;39.642;22.430;2022-07-24T13:02:56;11.73;;;4.13;;
65477;SDS011;53678;39.642;22.430;2022-07-24T13:05:41;10.13;;;4.38;;
65477;SDS011;53678;39.642;22.430;2022-07-24T13:08:10;8.13;;;3.88;;
65477;SDS011;53678;39.642;22.430;2022-07-24T13:10:36;9.27;;;3.95;;
65477;SDS011;53678;39.642;22.430;2022-07-24T13:13:02;10.95;;;4.32;;
65477;SDS011;53678;39.642;22.430;2022-07-24T13:15:29;8.82;;;4.40;;
65477;SDS011;53678;39.642;22.430;2022-07-24T13:17:55;9.70;;;3.90;;
65477;SDS011;53678;39.642;22.430;2022-07-24T13:20:20;9.05;;;3.90;;
65477;SDS011;53678;39.642;22.430;2022-07-24T13:22:46;8.07;;;4.03;;
65477;SDS011;53678;39.642;22.430;2022-07-24T13:25:12;10.45;;;4.10;;
65477;SDS011;53678;39.642;22.430;2022-07-24T13:27:38;8.15;;;4.13;;
65477;SDS011;53678;39.642;22.430;2022-07-24T13:30:04;6.80;;;4.43;;
65477;SDS011;53678;39.642;22.430;2022-07-24T13:32:31;9.38;;;4.00;;
65477;SDS011;53678;39.642;22.430;2022-07-24T13:34:57;7.43;;;4.03;;
65477;SDS011;53678;39.642;22.430;2022-07-24T13:37:23;9.32;;;4.07;;
65477;SDS011;53678;39.642;22.430;2022-07-24T13:39:49;6.03;;;3.90;;
65477;SDS011;53678;39.642;22.430;2022-07-24T13:42:15;6.25;;;3.88;;
65477;SDS011;53678;39.642;22.430;2022-07-24T13:44:41;6.07;;;4.13;;
65477;SDS011;53678;39.642;22.430;2022-07-24T13:47:07;10.82;;;3.80;;
65477;SDS011;53678;39.642;22.430;2022-07-24T13:49:33;7.88;;;4.22;;
65477;SDS011;53678;39.642;22.430;2022-07-24T13:51:59;9.55;;;4.18;;
65477;SDS011;53678;39.642;22.430;2022-07-24T13:54:25;5.57;;;3.50;;
65477;SDS011;53678;39.642;22.430;2022-07-24T13:56:51;7.20;;;3.95;;
65477;SDS011;53678;39.642;22.430;2022-07-24T13:59:18;6.18;;;4.00;;
65477;SDS011;53678;39.642;22.430;2022-07-24T14:01:44;7.18;;;3.90;;
65477;SDS011;53678;39.642;22.430;2022-07-24T14:04:10;8.23;;;4.20;;
65477;SDS011;53678;39.642;22.430;2022-07-24T14:06:36;6.00;;;4.03;;
65477;SDS011;53678;39.642;22.430;2022-07-24T14:09:03;8.60;;;3.90;;
65477;SDS011;53678;39.642;22.430;2022-07-24T14:11:29;10.70;;;4.10;;
65477;SDS011;53678;39.642;22.430;2022-07-24T14:13:56;8.90;;;4.22;;
65477;SDS011;53678;39.642;22.430;2022-07-24T14:16:22;6.88;;;4.15;;
65477;SDS011;53678;39.642;22.430;2022-07-24T14:18:48;8.63;;;4.25;;
65477;SDS011;53678;39.642;22.430;2022-07-24T14:21:14;9.98;;;3.90;;
65477;SDS011;53678;39.642;22.430;2022-07-24T14:23:40;10.30;;;4.28;;
65477;SDS011;53678;39.642;22.430;2022-07-24T14:26:06;13.40;;;4.55;;
65477;SDS011;53678;39.642;22.430;2022-07-24T14:28:32;7.07;;;4.43;;
65477;SDS011;53678;39.642;22.430;2022-07-24T14:30:58;7.10;;;3.95;;
65477;SDS011;53678;39.642;22.430;2022-07-24T14:33:24;9.70;;;4.30;;
65477;SDS011;53678;39.642;22.430;2022-07-24T14:35:50;7.10;;;3.90;;
65477;SDS011;53678;39.642;22.430;2022-07-24T14:38:16;9.88;;;4.22;;
65477;SDS011;53678;39.642;22.430;2022-07-24T14:40:42;13.18;;;4.40;;
65477;SDS011;53678;39.642;22.430;2022-07-24T14:43:08;12.55;;;4.38;;
65477;SDS011;53678;39.642;22.430;2022-07-24T14:45:34;9.57;;;4.45;;
65477;SDS011;53678;39.642;22.430;2022-07-24T14:48:00;6.30;;;4.10;;
65477;SDS011;53678;39.642;22.430;2022-07-24T14:50:26;11.05;;;4.65;;
65477;SDS011;53678;39.642;22.430;2022-07-24T14:52:52;6.82;;;4.20;;
65477;SDS011;53678;39.642;22.430;2022-07-24T14:55:18;11.35;;;4.03;;
65477;SDS011;53678;39.642;22.430;2022-07-24T14:57:44;7.82;;;4.05;;
65477;SDS011;53678;39.642;22.430;2022-07-24T15:00:10;10.70;;;4.10;;
65477;SDS011;53678;39.642;22.430;2022-07-24T15:02:36;7.90;;;4.15;;